ASN logo
Last updated: 19 November 2019
Statuts:Préliminaire
Date:samedi 15 juin 2019
Heure:12:55
Type/Sous-type:Silhouette image of generic B752 model; specific model in this crash may look slightly different
Boeing 757-224 (WL)
Compagnie:United Airlines
Immatriculation: N26123
Numéro de série: 28966/781
Année de Fabrication: 1997-11-30 (21 years 7 months)
Moteurs: 2 Rolls-Royce RB211-535E4B
Equipage:victimes: 0 / à bord:
Passagers:victimes: 0 / à bord:
Total:victimes: 0 / à bord: 166
Dégats de l'appareil: Substantiels
Conséquences: Written off (damaged beyond repair)
Lieu de l'accident:Newark-Liberty International Airport, NJ (EWR) (   Etats-Unis d'Amérique)
Phase de vol: A l'atterrissage (LDG)
Nature:Transport de Passagers Nat.
Aéroport de départ:Denver International Airport, CO (DEN/KDEN), Etats-Unis d'Amérique
Aéroport de destination:Newark-Liberty International Airport, NJ (EWR/KEWR), Etats-Unis d'Amérique
Numéro de vol:UA627
Détails:
United Airlines flight 627, a Boeing 757-224, sustained substantial damage to the forward fuselage following a hard landing accident at Newark-Liberty International Airport, New Jersey, USA.
The flight departed Denver International Airport, Colorado at 07:51 hours local time (13:51 UTC) on a scheduled service to Newark.
The aircraft landed on runway 22L at 12:55 local time (16:55 UTC). Preliminary reports indicate that the aircraft bounced on landing and veered off the left side of the runway. The aircraft came to rest with the left main gear and nose landing gear to the left of the runway shoulder, but still on the paved surface.

Accident investigation:
Investigating agency: NTSB
Status: Investigation ongoing

Sources:
» FAA

METAR Weather report:
16:51 UTC / 12:51 local time:
KEWR 151651Z 21016G24KT 10SM FEW140 SCT180 BKN250 27/09 A3005 RMK AO2 PK WND 20026/1553 SLP177 T02670094

16:58 UTC / 12:58 local time:
KEWR 151658Z 22013G24KT 10SM FEW130 SCT180 BKN250 27/09 A3005 RMK AO2 T02720089


Photos

photo of Boeing-757-224-N26123
accident date: 15-06-2019
type: Boeing 757-224 (WL)
registration: N26123
photo of Boeing-757-224-N26123
accident date: 15-06-2019
type: Boeing 757-224 (WL)
registration: N26123
 

Video, social media

Plan
This map shows the airport of departure and the intended destination of the flight. The line is connecting ADS-B datapoints from Flightradar24.
La distance entre Denver International Airport, CO et Newark-Liberty International Airport, NJ est de 2559 km (1599 miles).
Accident location: Exact; deduced from official accident report.

Les informations ci-dessus ne représentent pas l'opinion de la 'Flight Safety Foundation' ou de 'Aviation Safety Network' sur les causes de l'accident. Ces informations prélimimaires sont basées sur les faits tel qu'ils sont connus à ce jour.
languages: languages

Share